Mikado, MI (48745)

1:09 PM EDT on April 27, 2015 (GMT -0400)
KMIOSCOD3 | | Change Station
CLOSE
Current Station
Personal Weather Station
Location: On the Beach , North of Oscoda, MI
Elevation: 582 ft
Nearby Weather Stations

Elev 582 ft 44.51 °N, 83.32 °W | Updated 2 seconds ago

Overcast
Overcast
48.0 °F
Feels Like 41 °F
N
18.1
Wind Variable Wind from North
Gusts 21.6 mph

Today
High -- | Low -- °F
--% Chance of Precip.
Yesterday
High -- | Low -- °F
Precip. -- in
6:30 AM 8:33 PM
Waxing Gibbous, 66% visible
Pressure 30.03 in
Visibility 10.0 miles
Clouds Mostly Cloudy 3300 ft
Mostly Cloudy 4000 ft
Windchill 41 °F
Dew Point 39 °F
Humidity 72%
Rainfall 0.00 in
Snow Depth Not available.
UV 5 out of 12
Pollen 9.80 out of 12
Air Quality Not available.
Flu Activity Regional
METAR KOSC 271654Z AUTO 04011KT 10SM BKN033 BKN040 11/02 A3003 RMK AO2 T01100027

More Conditions Fewer Conditions

Pressure 30.03 in
Visibility 10.0 miles
Clouds Mostly Cloudy 3300 ft
Mostly Cloudy 4000 ft
Windchill 41 °F
Dew Point 39 °F
Humidity 72%
Rainfall 0.00 in
Snow Depth Not available.
UV 5 out of 12
Pollen 9.80 out of 12
Air Quality Not available.
Flu Activity Regional
METAR KOSC 271654Z AUTO 04011KT 10SM BKN033 BKN040 11/02 A3003 RMK AO2 T01100027

More Conditions Fewer Conditions

Nowcast | as of 1:00 PM EDT on April 27, 2015

At 2 PM...mostly cloudy. Temperature 49. North winds 14 mph. At 4 PM...mostly cloudy. Temperature 51. North winds 13 mph. At 6 PM...mostly cloudy. Temperature 51. North winds 12 mph. At 8 PM...mostly cloudy. Temperature 47. North winds 10 mph.

×

10-Day Weather Forecast

Almanac

Astronomy

Apr. 27, 2015 Rise Set
Actual Time
Civil Twilight
Nautical Twilight
Astronomical Twilight
Moon
Length of Visible Light
Length of Day
Tomorrow will be .
, % of the Moon is Illuminated

Today's Extremes

State Highs State Lows

Community

WunderPhotos

Upload Photos

1,817,341 photos uploaded!

WunderBlogs® & News

Nearby

Air Quality

  Air Quality AQ Index Pollutant
Not available.

Snow Depth

Station Depth Elevation

Earthquake Activity

City Distance Mag. Time & Date
Minimum magnitude displayed is 2.5.

Coastal Water Temperatures

Place Temperature

Stations

Nearby Weather Stations

Station Location Temp. Windchill Dew Point Humidity Wind Precip. Elev Updated Type